createdAt,value
2024-04-22T00:01:26.977Z,4.10
2024-04-22T00:03:53.968Z,4.10
2024-04-22T00:06:20.982Z,4.00
2024-04-22T00:08:47.935Z,4.00
2024-04-22T00:11:14.918Z,4.00
2024-04-22T00:13:42.059Z,4.00
2024-04-22T00:16:09.004Z,4.00
2024-04-22T00:18:35.978Z,3.90
2024-04-22T00:21:03.298Z,3.90
2024-04-22T00:23:30.298Z,3.90
2024-04-22T00:25:57.261Z,3.90
2024-04-22T00:28:24.338Z,3.90
2024-04-22T00:30:52.314Z,3.80
2024-04-22T00:33:19.341Z,3.70
2024-04-22T00:35:59.212Z,3.70
2024-04-22T00:38:30.354Z,3.80
2024-04-22T00:40:57.964Z,3.70
2024-04-22T00:43:25.313Z,3.80
2024-04-22T00:45:53.087Z,3.80
2024-04-22T00:48:21.883Z,3.80
2024-04-22T00:50:51.671Z,3.80
2024-04-22T00:53:19.240Z,3.80
2024-04-22T00:55:47.204Z,3.80
2024-04-22T00:58:14.564Z,3.80
2024-04-22T01:00:42.114Z,3.80
2024-04-22T01:03:09.433Z,3.80
2024-04-22T01:05:36.736Z,3.80
2024-04-22T01:08:04.236Z,3.80
2024-04-22T01:10:32.961Z,3.90
2024-04-22T01:13:00.674Z,3.90
2024-04-22T01:15:27.955Z,3.80
2024-04-22T01:17:55.090Z,3.90
2024-04-22T01:20:22.080Z,3.90
2024-04-22T01:22:49.136Z,3.90
2024-04-22T01:25:18.417Z,3.80
2024-04-22T01:27:45.498Z,3.80
2024-04-22T01:30:13.021Z,3.80
2024-04-22T01:32:40.103Z,3.70
2024-04-22T01:35:07.739Z,3.70
2024-04-22T01:37:35.004Z,3.70
2024-04-22T01:40:02.118Z,3.70
2024-04-22T01:42:29.109Z,3.70
2024-04-22T01:44:56.135Z,3.70
2024-04-22T01:47:23.261Z,3.70
2024-04-22T01:49:50.190Z,3.60
2024-04-22T01:52:17.484Z,3.70
2024-04-22T01:54:44.490Z,3.70
2024-04-22T01:57:11.581Z,3.70
2024-04-22T01:59:39.065Z,3.70
2024-04-22T02:02:06.247Z,3.70
2024-04-22T02:04:33.276Z,3.70
2024-04-22T02:07:00.283Z,3.70
2024-04-22T02:09:27.261Z,3.70
2024-04-22T02:11:54.318Z,3.50
2024-04-22T02:14:21.404Z,3.40
2024-04-22T02:16:48.454Z,3.40
2024-04-22T02:19:15.481Z,3.40
2024-04-22T02:21:42.576Z,3.40
2024-04-22T02:24:09.537Z,3.40
2024-04-22T02:26:36.788Z,3.40
2024-04-22T02:29:03.841Z,3.40
2024-04-22T02:31:30.823Z,3.40
2024-04-22T02:33:57.761Z,3.30
2024-04-22T02:36:24.799Z,3.40
2024-04-22T02:38:51.832Z,3.40
2024-04-22T02:41:18.812Z,3.40
2024-04-22T02:43:47.898Z,3.40
2024-04-22T02:46:14.913Z,3.30
2024-04-22T02:48:41.923Z,3.20
2024-04-22T02:51:08.883Z,3.30
2024-04-22T02:53:35.827Z,3.20
2024-04-22T02:56:02.863Z,3.30
2024-04-22T02:58:30.010Z,3.30
2024-04-22T03:00:57.071Z,3.20
2024-04-22T03:03:24.225Z,3.20
2024-04-22T03:05:51.357Z,3.20
2024-04-22T03:08:18.355Z,3.20
2024-04-22T03:10:45.369Z,3.20
2024-04-22T03:13:12.352Z,3.20
2024-04-22T03:15:40.439Z,3.20
2024-04-22T03:18:07.809Z,3.10
2024-04-22T03:20:37.982Z,3.10
2024-04-22T03:23:05.187Z,3.10
2024-04-22T03:25:32.190Z,3.10
2024-04-22T03:27:59.289Z,3.10
2024-04-22T03:30:26.288Z,3.20
2024-04-22T03:32:53.296Z,3.20
2024-04-22T03:35:20.519Z,3.20
2024-04-22T03:37:47.467Z,3.20
2024-04-22T03:40:14.500Z,3.20
2024-04-22T03:42:41.467Z,3.20
2024-04-22T03:45:08.544Z,3.10
2024-04-22T03:47:54.418Z,3.10
2024-04-22T03:50:21.475Z,3.00
2024-04-22T03:52:48.492Z,3.00
2024-04-22T03:55:15.543Z,3.00
2024-04-22T03:57:42.516Z,3.00
2024-04-22T04:00:09.904Z,2.90
2024-04-22T04:02:39.801Z,2.90
2024-04-22T04:05:06.991Z,2.90
2024-04-22T04:07:34.207Z,2.90
2024-04-22T04:10:01.200Z,2.90
2024-04-22T04:12:28.187Z,2.80
2024-04-22T04:14:55.136Z,2.80
2024-04-22T04:17:23.726Z,2.80
2024-04-22T04:19:50.732Z,2.80
2024-04-22T04:22:17.753Z,2.90
2024-04-22T04:24:44.716Z,2.90
2024-04-22T04:27:11.955Z,2.90
2024-04-22T04:29:39.129Z,2.80
2024-04-22T04:32:06.265Z,2.80
2024-04-22T04:34:33.249Z,2.70
2024-04-22T04:37:00.205Z,2.70
2024-04-22T04:39:27.328Z,2.70
2024-04-22T04:41:54.257Z,2.60
2024-04-22T04:44:21.211Z,2.60
2024-04-22T04:46:48.220Z,2.60
2024-04-22T04:49:15.245Z,2.60
2024-04-22T04:51:42.723Z,2.50
2024-04-22T04:54:09.713Z,2.50
2024-04-22T04:56:36.639Z,2.40
2024-04-22T04:59:03.858Z,2.40
2024-04-22T05:01:30.981Z,2.30
2024-04-22T05:03:59.130Z,2.40
2024-04-22T05:06:26.292Z,2.30
2024-04-22T05:08:53.224Z,2.30
2024-04-22T05:11:20.737Z,2.30
2024-04-22T05:13:47.829Z,2.30
2024-04-22T05:16:14.861Z,2.30
2024-04-22T05:18:43.992Z,2.30
2024-04-22T05:21:11.796Z,2.20
2024-04-22T05:23:38.802Z,2.20
2024-04-22T05:26:05.747Z,2.30
2024-04-22T05:28:32.751Z,2.30
2024-04-22T05:30:59.754Z,2.30
2024-04-22T05:33:45.184Z,2.20
2024-04-22T05:36:16.403Z,2.20
2024-04-22T05:38:46.473Z,2.30
2024-04-22T05:41:13.525Z,2.30
2024-04-22T05:43:40.609Z,2.30
2024-04-22T05:46:09.737Z,2.30
2024-04-22T05:48:37.041Z,2.30
2024-04-22T05:51:04.410Z,2.30
2024-04-22T05:53:31.437Z,2.30
2024-04-22T05:55:58.411Z,2.40
2024-04-22T05:58:25.378Z,2.40
2024-04-22T06:00:52.424Z,2.40
2024-04-22T06:03:19.380Z,2.50
2024-04-22T06:05:46.399Z,2.50
2024-04-22T06:08:13.634Z,2.60
2024-04-22T06:10:40.681Z,2.70
2024-04-22T06:13:07.675Z,2.80
2024-04-22T06:15:34.669Z,2.80
2024-04-22T06:18:01.663Z,2.90
2024-04-22T06:20:28.651Z,3.00
2024-04-22T06:22:55.677Z,3.00
2024-04-22T06:25:22.701Z,3.00
2024-04-22T06:27:51.561Z,3.00
2024-04-22T06:30:18.763Z,3.10
2024-04-22T06:32:46.543Z,3.20
2024-04-22T06:35:13.566Z,3.10
2024-04-22T06:37:40.588Z,3.20
2024-04-22T06:40:08.215Z,3.20
2024-04-22T06:42:35.188Z,3.20
2024-04-22T06:45:02.120Z,3.20
2024-04-22T06:47:29.287Z,3.30
2024-04-22T06:49:56.362Z,3.40
2024-04-22T06:52:23.357Z,3.40
2024-04-22T06:54:50.339Z,3.40
2024-04-22T06:57:18.661Z,3.40
2024-04-22T06:59:47.939Z,3.50
2024-04-22T07:02:19.350Z,3.40
2024-04-22T07:04:49.517Z,3.50
2024-04-22T07:07:16.589Z,3.40
2024-04-22T07:09:43.521Z,3.40
2024-04-22T07:12:10.537Z,3.40
2024-04-22T07:14:37.583Z,3.30
2024-04-22T07:17:04.831Z,3.30
2024-04-22T07:19:31.821Z,3.30
2024-04-22T07:22:01.664Z,3.30
2024-04-22T07:24:28.934Z,3.40
2024-04-22T07:26:56.100Z,3.50
2024-04-22T07:29:23.669Z,3.40
2024-04-22T07:31:51.875Z,3.40
2024-04-22T07:34:19.661Z,3.50
2024-04-22T07:36:48.221Z,3.50
2024-04-22T07:39:15.768Z,3.50
2024-04-22T07:41:42.739Z,3.60
2024-04-22T07:44:10.222Z,3.70
2024-04-22T07:46:37.219Z,3.70
2024-04-22T07:49:04.645Z,3.80
2024-04-22T07:51:31.605Z,3.80
2024-04-22T07:53:59.849Z,3.90
2024-04-22T07:56:27.198Z,4.00
2024-04-22T07:58:54.456Z,4.00
2024-04-22T08:01:21.642Z,4.00
2024-04-22T08:03:49.023Z,4.10
2024-04-22T08:06:19.393Z,4.10
2024-04-22T08:08:46.935Z,4.10
2024-04-22T08:11:14.134Z,4.10
2024-04-22T08:13:41.188Z,4.20
2024-04-22T08:16:08.219Z,4.20
2024-04-22T08:18:35.516Z,4.30
2024-04-22T08:21:03.812Z,4.40
2024-04-22T08:23:32.402Z,4.50
2024-04-22T08:25:59.749Z,4.50
2024-04-22T08:28:26.942Z,4.50
2024-04-22T08:31:04.465Z,4.60
2024-04-22T08:33:31.594Z,4.70
2024-04-22T08:36:00.100Z,4.80
2024-04-22T08:38:27.297Z,4.80
2024-04-22T08:40:54.407Z,4.80
2024-04-22T08:43:21.704Z,4.80
2024-04-22T08:45:48.789Z,4.80
2024-04-22T08:48:16.544Z,4.80
2024-04-22T08:50:43.726Z,4.80
2024-04-22T08:53:12.583Z,4.90
2024-04-22T08:55:40.622Z,4.80
2024-04-22T08:58:08.949Z,4.90
2024-04-22T09:00:37.355Z,5.00
2024-04-22T09:03:04.695Z,5.10
2024-04-22T09:05:32.160Z,5.10
2024-04-22T09:08:00.071Z,5.10
2024-04-22T09:10:56.066Z,5.00
2024-04-22T09:13:17.981Z,5.00
2024-04-22T09:15:45.246Z,4.90
2024-04-22T09:18:15.497Z,4.90
2024-04-22T09:20:42.614Z,5.00
2024-04-22T09:23:09.715Z,4.90
2024-04-22T09:25:37.181Z,4.90
2024-04-22T09:28:06.018Z,5.00
2024-04-22T09:30:41.515Z,5.10
2024-04-22T09:33:15.199Z,5.10
2024-04-22T09:35:43.986Z,5.10
2024-04-22T09:38:12.505Z,5.20
2024-04-22T09:40:41.513Z,5.20
2024-04-22T09:43:09.245Z,5.30
2024-04-22T09:45:37.653Z,5.30
2024-04-22T09:48:07.721Z,5.30
2024-04-22T09:50:35.013Z,5.30
2024-04-22T09:53:04.589Z,5.30
2024-04-22T09:55:32.763Z,5.30
2024-04-22T09:58:01.511Z,5.40
2024-04-22T10:00:28.706Z,5.50
2024-04-22T10:02:56.339Z,5.60
2024-04-22T10:05:25.009Z,5.80
2024-04-22T10:07:52.465Z,6.00
2024-04-22T10:10:20.173Z,6.10
2024-04-22T10:12:47.587Z,6.20
2024-04-22T10:15:18.383Z,6.30
2024-04-22T10:17:46.237Z,6.30
2024-04-22T10:20:13.718Z,6.30
2024-04-22T10:22:41.405Z,6.30
2024-04-22T10:25:09.998Z,6.30
2024-04-22T10:27:37.560Z,6.20
2024-04-22T10:30:08.999Z,6.20
2024-04-22T10:32:36.947Z,6.20
2024-04-22T10:35:05.831Z,6.20
2024-04-22T10:37:32.953Z,6.30
2024-04-22T10:40:00.454Z,6.30
2024-04-22T10:42:29.738Z,6.30
2024-04-22T10:44:56.934Z,6.20
2024-04-22T10:47:24.003Z,6.20
2024-04-22T10:49:51.172Z,6.10
2024-04-22T10:52:18.381Z,6.10
2024-04-22T10:54:47.766Z,6.10
2024-04-22T10:57:16.201Z,6.10
2024-04-22T10:59:43.273Z,6.20
2024-04-22T11:02:11.372Z,6.30
2024-04-22T11:04:41.778Z,6.30
2024-04-22T11:07:08.970Z,6.50
2024-04-22T11:09:36.365Z,6.50
2024-04-22T11:12:04.174Z,6.60
2024-04-22T11:14:33.780Z,6.60
2024-04-22T11:17:00.844Z,6.70
2024-04-22T11:19:28.630Z,6.90
2024-04-22T11:21:55.738Z,7.10
2024-04-22T11:24:22.768Z,7.10
2024-04-22T11:26:49.997Z,7.20
2024-04-22T11:29:17.210Z,7.30
2024-04-22T11:31:45.676Z,7.40
2024-04-22T11:34:12.974Z,7.50
2024-04-22T11:36:41.464Z,7.50
2024-04-22T11:39:18.416Z,7.50
2024-04-22T11:41:48.087Z,7.50
2024-04-22T11:44:15.182Z,7.40
2024-04-22T11:46:42.497Z,7.50
2024-04-22T11:49:09.563Z,7.60
2024-04-22T11:51:36.995Z,7.60
2024-04-22T11:54:05.960Z,7.60
2024-04-22T11:56:41.314Z,7.60
2024-04-22T11:59:08.542Z,7.50
2024-04-22T12:01:35.967Z,7.50
2024-04-22T12:04:03.025Z,7.60
2024-04-22T12:06:29.998Z,7.50
2024-04-22T12:08:57.554Z,7.50
2024-04-22T12:11:25.489Z,7.60
2024-04-22T12:13:52.489Z,7.70
2024-04-22T12:16:19.524Z,7.80
2024-04-22T12:18:46.498Z,7.50
2024-04-22T12:21:13.516Z,7.40
2024-04-22T12:23:42.339Z,7.30
2024-04-22T12:26:09.333Z,7.20
2024-04-22T12:28:36.273Z,7.10
2024-04-22T12:31:03.727Z,7.10
2024-04-22T12:33:30.819Z,7.10
2024-04-22T12:35:57.865Z,7.10
2024-04-22T12:38:24.795Z,7.20
2024-04-22T12:40:52.238Z,7.30
2024-04-22T12:43:19.269Z,7.40
2024-04-22T12:45:46.307Z,7.40
2024-04-22T12:48:32.254Z,7.50
2024-04-22T12:51:01.169Z,7.40
2024-04-22T12:53:28.923Z,7.50
2024-04-22T12:55:55.907Z,7.50
2024-04-22T12:58:22.905Z,7.60
2024-04-22T13:00:50.242Z,7.60
2024-04-22T13:03:17.407Z,7.60
2024-04-22T13:05:44.665Z,7.60
2024-04-22T13:08:11.636Z,7.70
2024-04-22T13:10:38.829Z,7.70
2024-04-22T13:13:06.802Z,7.70
2024-04-22T13:15:34.536Z,7.80
2024-04-22T13:18:02.422Z,7.90
2024-04-22T13:20:29.945Z,7.90
2024-04-22T13:22:57.062Z,7.90
2024-04-22T13:25:24.971Z,7.90
2024-04-22T13:27:52.501Z,8.00
2024-04-22T13:30:19.507Z,8.00
2024-04-22T13:32:48.149Z,8.10
2024-04-22T13:35:15.455Z,8.10
2024-04-22T13:37:42.660Z,8.30
2024-04-22T13:40:11.204Z,8.20
2024-04-22T13:42:42.400Z,8.30
2024-04-22T13:45:12.649Z,8.30
2024-04-22T13:47:40.255Z,8.30
2024-04-22T13:50:07.539Z,8.30
2024-04-22T13:52:34.852Z,8.40
2024-04-22T13:55:04.844Z,8.40
2024-04-22T13:57:38.850Z,8.50
2024-04-22T14:00:09.613Z,8.50
2024-04-22T14:02:38.451Z,8.60
2024-04-22T14:05:05.953Z,8.60
2024-04-22T14:07:33.214Z,8.60
2024-04-22T14:10:01.227Z,8.60
2024-04-22T14:12:29.166Z,8.50
2024-04-22T14:14:56.189Z,8.60
2024-04-22T14:17:24.387Z,8.60
2024-04-22T14:19:52.118Z,8.50
2024-04-22T14:22:19.154Z,8.50
2024-04-22T14:24:46.162Z,8.40
2024-04-22T14:27:13.101Z,8.50
2024-04-22T14:29:40.071Z,8.60
2024-04-22T14:32:07.335Z,8.60
2024-04-22T14:34:34.451Z,8.60
2024-04-22T14:37:01.454Z,8.60
2024-04-22T14:39:30.174Z,8.70
2024-04-22T14:41:58.296Z,8.80
2024-04-22T14:44:25.441Z,8.90
2024-04-22T14:46:52.514Z,8.80
2024-04-22T14:49:19.490Z,8.80
2024-04-22T14:51:46.547Z,8.60
2024-04-22T14:54:13.522Z,8.60
2024-04-22T14:56:40.497Z,8.60
2024-04-22T14:59:08.389Z,8.50
2024-04-22T15:01:35.421Z,8.40
2024-04-22T15:04:02.571Z,8.30
2024-04-22T15:06:29.634Z,8.30
2024-04-22T15:08:57.167Z,8.40
2024-04-22T15:11:26.092Z,8.30
2024-04-22T15:13:53.357Z,8.30
2024-04-22T15:16:21.111Z,8.30
2024-04-22T15:18:48.263Z,8.30
2024-04-22T15:21:15.294Z,8.40
2024-04-22T15:23:42.422Z,8.30
2024-04-22T15:26:09.451Z,8.30
2024-04-22T15:28:36.493Z,8.30
2024-04-22T15:31:06.354Z,8.20
2024-04-22T15:33:44.279Z,8.10
2024-04-22T15:36:11.364Z,8.10
2024-04-22T15:38:44.721Z,8.00
2024-04-22T15:41:11.746Z,7.90
2024-04-22T15:43:47.181Z,7.80
2024-04-22T15:46:17.665Z,7.70
2024-04-22T15:48:47.953Z,7.70
2024-04-22T15:51:15.717Z,7.80
2024-04-22T15:53:49.603Z,7.80
2024-04-22T15:56:17.547Z,7.70
2024-04-22T15:58:49.168Z,7.80
2024-04-22T16:01:16.714Z,7.80
2024-04-22T16:03:43.901Z,7.80
2024-04-22T16:06:15.592Z,7.80
2024-04-22T16:08:42.494Z,7.80
2024-04-22T16:11:09.694Z,7.70
2024-04-22T16:13:36.625Z,7.60
2024-04-22T16:16:03.885Z,7.60
2024-04-22T16:18:33.960Z,7.70
2024-04-22T16:23:36.269Z,7.80
2024-04-22T16:26:07.936Z,7.80
2024-04-22T16:28:34.886Z,7.80
2024-04-22T16:31:01.826Z,7.80
2024-04-22T16:33:29.326Z,7.80
2024-04-22T16:35:56.247Z,8.00
2024-04-22T16:38:23.242Z,8.00
2024-04-22T16:40:50.783Z,8.00
2024-04-22T16:43:20.646Z,8.10
2024-04-22T16:45:48.298Z,8.00
2024-04-22T16:48:15.512Z,8.00
2024-04-22T16:50:42.761Z,8.00
2024-04-22T16:53:09.750Z,8.00
2024-04-22T16:55:37.037Z,8.00
2024-04-22T16:58:06.319Z,8.00
2024-04-22T17:00:33.273Z,8.00
2024-04-22T17:03:00.387Z,7.90
2024-04-22T17:05:27.679Z,7.80
2024-04-22T17:07:54.685Z,7.80
2024-04-22T17:10:22.483Z,7.70
2024-04-22T17:12:51.310Z,7.70
2024-04-22T17:15:19.516Z,7.70
2024-04-22T17:17:50.124Z,7.70
2024-04-22T17:20:17.159Z,7.70
2024-04-22T17:22:45.041Z,7.70
2024-04-22T17:25:14.956Z,7.60
2024-04-22T17:27:41.945Z,7.50
2024-04-22T17:30:09.593Z,7.50
2024-04-22T17:32:36.608Z,7.40
2024-04-22T17:35:04.586Z,7.40
2024-04-22T17:37:31.802Z,7.30
2024-04-22T17:40:00.256Z,7.30
2024-04-22T17:42:27.235Z,7.30
2024-04-22T17:44:55.289Z,7.30
2024-04-22T17:47:27.907Z,7.20
2024-04-22T17:49:55.007Z,7.30
2024-04-22T17:52:27.509Z,7.20
2024-04-22T17:54:54.475Z,7.20
2024-04-22T17:57:21.879Z,7.10
2024-04-22T17:59:48.849Z,7.10
2024-04-22T18:02:16.254Z,7.00
2024-04-22T18:04:43.395Z,7.10
2024-04-22T18:07:10.303Z,7.00
2024-04-22T18:09:37.219Z,7.00
2024-04-22T18:12:05.550Z,7.00
2024-04-22T18:14:32.432Z,7.00
2024-04-22T18:16:59.722Z,7.00
2024-04-22T18:19:27.000Z,7.00
2024-04-22T18:21:55.595Z,7.00
2024-04-22T18:24:24.204Z,7.00
2024-04-22T18:26:51.185Z,6.90
2024-04-22T18:29:20.430Z,6.90
2024-04-22T18:31:49.399Z,6.90
2024-04-22T18:34:16.789Z,6.80
2024-04-22T18:36:43.793Z,6.80
2024-04-22T18:39:10.901Z,6.70
2024-04-22T18:41:38.038Z,6.70
2024-04-22T18:44:06.603Z,6.70
2024-04-22T18:46:33.761Z,6.70
2024-04-22T18:49:03.350Z,6.60
2024-04-22T18:51:30.727Z,6.70
2024-04-22T18:53:57.716Z,6.70
2024-04-22T18:56:27.238Z,6.70
2024-04-22T18:58:54.426Z,6.70
2024-04-22T19:01:21.593Z,6.60
2024-04-22T19:03:51.803Z,6.60
2024-04-22T19:06:19.022Z,6.60
2024-04-22T19:08:54.799Z,6.60
2024-04-22T19:11:21.793Z,6.60
2024-04-22T19:13:48.782Z,6.60
2024-04-22T19:16:15.771Z,6.60
2024-04-22T19:18:42.862Z,6.60
2024-04-22T19:21:10.292Z,6.60
2024-04-22T19:23:37.310Z,6.60
2024-04-22T19:26:09.944Z,6.60
2024-04-22T19:28:36.962Z,6.50
2024-04-22T19:31:10.120Z,6.50
2024-04-22T19:33:37.087Z,6.50
2024-04-22T19:36:04.334Z,6.40
2024-04-22T19:38:31.274Z,6.40
2024-04-22T19:40:58.305Z,6.30
2024-04-22T19:43:25.356Z,6.30
2024-04-22T19:45:52.410Z,6.30
2024-04-22T19:48:19.679Z,6.20
2024-04-22T19:50:47.919Z,6.20
2024-04-22T19:53:15.357Z,6.10
2024-04-22T19:55:43.430Z,6.10
2024-04-22T19:58:11.523Z,6.10
2024-04-22T20:00:38.466Z,6.10
2024-04-22T20:03:13.923Z,6.10
2024-04-22T20:05:41.248Z,6.00
2024-04-22T20:08:14.423Z,5.90
2024-04-22T20:10:43.959Z,6.00
2024-04-22T20:13:14.905Z,6.00
2024-04-22T20:15:57.085Z,6.00
2024-04-22T20:18:42.298Z,5.90
2024-04-22T20:21:09.501Z,5.90
2024-04-22T20:23:39.926Z,5.90
2024-04-22T20:26:07.190Z,5.90
2024-04-22T20:28:43.406Z,5.90
2024-04-22T20:31:43.234Z,5.80
2024-04-22T20:34:10.782Z,5.70
2024-04-22T20:36:43.721Z,5.70
2024-04-22T20:39:11.102Z,5.60
2024-04-22T20:41:38.586Z,5.60
2024-04-22T20:44:08.449Z,5.60
2024-04-22T20:46:35.605Z,5.50
2024-04-22T20:49:10.185Z,5.50
2024-04-22T20:51:38.805Z,5.50
2024-04-22T20:54:11.994Z,5.40
2024-04-22T20:56:39.190Z,5.40
2024-04-22T20:59:15.225Z,5.30
2024-04-22T21:01:42.339Z,5.30
2024-04-22T21:04:18.117Z,5.40
2024-04-22T21:06:47.841Z,5.40
2024-04-22T21:09:14.845Z,5.30
2024-04-22T21:11:41.898Z,5.10
2024-04-22T21:14:08.847Z,5.10
2024-04-22T21:16:37.036Z,5.20
2024-04-22T21:19:11.464Z,5.20
2024-04-22T21:21:45.927Z,5.20
2024-04-22T21:24:13.018Z,5.20
2024-04-22T21:26:39.950Z,5.10
2024-04-22T21:29:07.026Z,5.10
2024-04-22T21:31:34.967Z,5.00
2024-04-22T21:36:31.769Z,5.00
2024-04-22T21:38:59.015Z,4.90
2024-04-22T21:41:25.939Z,4.80
2024-04-22T21:43:52.918Z,4.80
2024-04-22T21:46:20.030Z,4.80
2024-04-22T21:48:46.927Z,4.80
2024-04-22T21:51:13.885Z,4.70
2024-04-22T21:53:40.830Z,4.70
2024-04-22T21:56:13.959Z,4.70
2024-04-22T21:59:18.868Z,4.70
2024-04-22T22:02:23.290Z,4.60
2024-04-22T22:05:28.313Z,4.60
2024-04-22T22:07:55.263Z,4.50
2024-04-22T22:10:22.513Z,4.50
2024-04-22T22:12:49.518Z,4.50
2024-04-22T22:15:17.536Z,4.40
2024-04-22T22:17:45.488Z,4.40
2024-04-22T22:20:12.815Z,4.30
2024-04-22T22:22:39.836Z,4.30
2024-04-22T22:25:08.669Z,4.30
2024-04-22T22:27:35.540Z,4.30
2024-04-22T22:30:03.197Z,4.20
2024-04-22T22:32:30.650Z,4.20
2024-04-22T22:34:57.833Z,4.20
2024-04-22T22:37:24.763Z,4.10
2024-04-22T22:39:51.744Z,4.10
2024-04-22T22:42:18.671Z,4.10
2024-04-22T22:44:45.534Z,4.00
2024-04-22T22:47:12.569Z,4.00
2024-04-22T22:49:39.623Z,4.00
2024-04-22T22:52:06.607Z,4.00
2024-04-22T22:54:33.554Z,4.00
2024-04-22T22:57:01.802Z,4.00
2024-04-22T22:59:29.366Z,3.90
2024-04-22T23:01:58.062Z,3.90
2024-04-22T23:04:25.476Z,3.90
2024-04-22T23:06:52.490Z,3.90
2024-04-22T23:09:19.398Z,3.90
2024-04-22T23:11:46.346Z,3.90
2024-04-22T23:14:13.287Z,3.90
2024-04-22T23:16:40.268Z,3.80
2024-04-22T23:19:07.202Z,3.80
2024-04-22T23:21:34.168Z,3.80
2024-04-22T23:24:01.323Z,3.80
2024-04-22T23:26:28.267Z,3.70
2024-04-22T23:28:55.255Z,3.70
2024-04-22T23:31:22.352Z,3.70
2024-04-22T23:33:49.411Z,3.70
2024-04-22T23:36:17.655Z,3.60
2024-04-22T23:38:44.523Z,3.60
2024-04-22T23:41:11.634Z,3.60
2024-04-22T23:43:38.809Z,3.60
2024-04-22T23:46:05.832Z,3.60
2024-04-22T23:48:32.773Z,3.60
2024-04-22T23:50:59.622Z,3.50
2024-04-22T23:53:26.506Z,3.50
2024-04-22T23:55:53.591Z,3.50
2024-04-22T23:58:20.535Z,3.50
